createdAt,value
2022-10-11T00:00:12.702Z,101531.57
2022-10-11T00:02:39.309Z,101536.48
2022-10-11T00:05:07.200Z,101539.79
2022-10-11T00:07:33.927Z,101546.65
2022-10-11T00:10:00.629Z,101552.83
2022-10-11T00:12:27.288Z,101562.02
2022-10-11T00:14:53.903Z,101568.67
2022-10-11T00:17:20.537Z,101570.95
2022-10-11T00:19:47.178Z,101577.95
2022-10-11T00:22:14.187Z,101583.27
2022-10-11T00:24:40.845Z,101587.46
2022-10-11T00:27:07.861Z,101595.63
2022-10-11T00:29:34.782Z,101597.30
2022-10-11T00:32:01.395Z,101602.27
2022-10-11T00:34:28.201Z,101601.29
2022-10-11T00:36:54.818Z,101606.30
2022-10-11T00:39:21.834Z,101609.14
2022-10-11T00:41:49.452Z,101611.96
2022-10-11T00:44:27.156Z,101610.77
2022-10-11T00:47:01.823Z,101614.59
2022-10-11T00:49:45.243Z,101614.92
2022-10-11T00:52:22.399Z,101618.48
2022-10-11T00:54:49.514Z,101621.38
2022-10-11T00:57:24.760Z,101627.63
2022-10-11T00:59:55.601Z,101631.88
2022-10-11T01:02:24.612Z,101630.67
2022-10-11T01:05:11.399Z,101631.54
2022-10-11T01:07:41.648Z,101633.61
2022-10-11T01:10:08.920Z,101635.73
2022-10-11T01:12:52.755Z,101642.42
2022-10-11T01:15:38.231Z,101649.54
2022-10-11T01:18:35.673Z,101652.27
2022-10-11T01:21:22.649Z,101656.45
2022-10-11T01:24:35.888Z,101662.29
2022-10-11T01:27:36.962Z,101665.11
2022-10-11T01:30:25.227Z,101667.38
2022-10-11T01:33:21.078Z,101670.54
2022-10-11T01:36:05.770Z,101673.80
2022-10-11T01:38:45.857Z,101677.27
2022-10-11T01:41:23.596Z,101676.02
2022-10-11T01:43:56.886Z,101681.18
2022-10-11T01:46:25.060Z,101680.77
2022-10-11T01:48:59.462Z,101680.93
2022-10-11T01:51:50.188Z,101680.05
2022-10-11T01:55:04.045Z,101681.63
2022-10-11T01:57:52.364Z,101685.48
2022-10-11T02:00:21.691Z,101687.12
2022-10-11T02:03:45.654Z,101686.21
2022-10-11T02:06:56.876Z,101688.52
2022-10-11T02:09:47.937Z,101695.48
2022-10-11T02:12:27.912Z,101699.14
2022-10-11T02:14:58.145Z,101699.59
2022-10-11T02:17:34.434Z,101699.63
2022-10-11T02:20:11.653Z,101703.58
2022-10-11T02:22:45.980Z,101707.80
2022-10-11T02:25:23.410Z,101710.54
2022-10-11T02:27:57.395Z,101714.02
2022-10-11T02:30:24.112Z,101717.11
2022-10-11T02:32:54.370Z,101713.17
2022-10-11T02:35:29.496Z,101721.41
2022-10-11T02:38:30.418Z,101721.43
2022-10-11T02:41:10.962Z,101726.91
2022-10-11T02:43:46.581Z,101726.59
2022-10-11T02:46:17.561Z,101727.13
2022-10-11T02:48:44.527Z,101728.67
2022-10-11T02:51:14.386Z,101729.23
2022-10-11T02:53:41.162Z,101727.61
2022-10-11T02:56:08.522Z,101732.16
2022-10-11T02:58:35.415Z,101737.59
2022-10-11T03:01:02.076Z,101740.16
2022-10-11T03:03:28.792Z,101742.86
2022-10-11T03:06:04.541Z,101746.89
2022-10-11T03:08:31.697Z,101748.45
2022-10-11T03:10:58.630Z,101754.59
2022-10-11T03:13:25.251Z,101758.56
2022-10-11T03:16:02.787Z,101761.60
2022-10-11T03:18:31.725Z,101765.08
2022-10-11T03:20:58.621Z,101767.15
2022-10-11T03:23:25.566Z,101771.48
2022-10-11T03:25:52.268Z,101774.77
2022-10-11T03:28:20.600Z,101774.80
2022-10-11T03:30:51.250Z,101781.23
2022-10-11T03:33:18.891Z,101785.15
2022-10-11T03:35:48.213Z,101789.57
2022-10-11T03:38:21.163Z,101793.44
2022-10-11T03:40:49.304Z,101794.26
2022-10-11T03:43:16.972Z,101799.61
2022-10-11T03:45:43.990Z,101798.36
2022-10-11T03:48:12.018Z,101799.63
2022-10-11T03:50:39.393Z,101804.12
2022-10-11T03:53:07.535Z,101803.75
2022-10-11T03:55:34.491Z,101799.27
2022-10-11T03:58:01.412Z,101804.77
2022-10-11T04:00:28.107Z,101807.21
2022-10-11T04:02:55.075Z,101815.34
2022-10-11T04:05:22.067Z,101820.74
2022-10-11T04:07:48.969Z,101825.50
2022-10-11T04:10:15.700Z,101828.64
2022-10-11T04:12:42.455Z,101829.98
2022-10-11T04:15:13.440Z,101832.17
2022-10-11T04:17:40.968Z,101832.39
2022-10-11T04:20:09.160Z,101836.46
2022-10-11T04:22:36.151Z,101839.64
2022-10-11T04:25:03.135Z,101842.00
2022-10-11T04:27:30.431Z,101840.48
2022-10-11T04:29:57.167Z,101845.11
2022-10-11T04:32:24.054Z,101846.80
2022-10-11T04:34:51.299Z,101849.64
2022-10-11T04:37:18.783Z,101850.14
2022-10-11T04:39:45.427Z,101855.04
2022-10-11T04:42:13.869Z,101852.95
2022-10-11T04:44:40.661Z,101853.07
2022-10-11T04:47:07.538Z,101852.60
2022-10-11T04:49:34.485Z,101855.77
2022-10-11T04:52:01.414Z,101859.27
2022-10-11T04:54:28.204Z,101861.58
2022-10-11T04:56:55.070Z,101864.40
2022-10-11T04:59:22.011Z,101868.10
2022-10-11T05:01:48.738Z,101870.25
2022-10-11T05:04:15.823Z,101874.14
2022-10-11T05:06:42.666Z,101875.16
2022-10-11T05:09:09.499Z,101877.75
2022-10-11T05:11:36.221Z,101882.83
2022-10-11T05:14:03.262Z,101880.02
2022-10-11T05:16:30.222Z,101886.16
2022-10-11T05:18:56.964Z,101889.29
2022-10-11T05:21:29.651Z,101891.38
2022-10-11T05:23:57.405Z,101895.63
2022-10-11T05:26:27.683Z,101900.71
2022-10-11T05:28:55.508Z,101904.02
2022-10-11T05:31:23.129Z,101910.08
2022-10-11T05:33:50.091Z,101913.20
2022-10-11T05:36:17.993Z,101917.37
2022-10-11T05:38:44.687Z,101917.92
2022-10-11T05:41:15.418Z,101918.93
2022-10-11T05:43:44.482Z,101924.66
2022-10-11T05:46:12.442Z,101926.20
2022-10-11T05:48:40.105Z,101930.80
2022-10-11T05:51:10.348Z,101930.80
2022-10-11T05:53:38.649Z,101935.04
2022-10-11T05:56:16.727Z,101939.98
2022-10-11T05:58:43.368Z,101941.28
2022-10-11T06:01:18.791Z,101939.36
2022-10-11T06:03:45.607Z,101943.38
2022-10-11T06:06:12.507Z,101947.89
2022-10-11T06:08:39.352Z,101950.67
2022-10-11T06:11:20.427Z,101954.85
2022-10-11T06:13:47.310Z,101960.07
2022-10-11T06:16:14.756Z,101958.20
2022-10-11T06:18:41.543Z,101964.38
2022-10-11T06:21:08.299Z,101969.08
2022-10-11T06:23:34.993Z,101974.96
2022-10-11T06:26:06.871Z,101976.67
2022-10-11T06:28:36.258Z,101982.74
2022-10-11T06:31:06.062Z,101984.67
2022-10-11T06:33:34.397Z,101987.98
2022-10-11T06:36:09.754Z,101982.73
2022-10-11T06:38:39.800Z,101982.23
2022-10-11T06:41:30.548Z,101985.45
2022-10-11T06:43:58.018Z,101989.42
2022-10-11T06:46:27.663Z,101991.91
2022-10-11T06:48:56.451Z,101992.64
2022-10-11T06:51:23.676Z,101996.37
2022-10-11T06:53:56.799Z,101998.98
2022-10-11T06:56:25.717Z,101999.27
2022-10-11T06:58:55.196Z,102003.48
2022-10-11T07:01:23.859Z,102006.27
2022-10-11T07:03:54.673Z,102008.20
2022-10-11T07:06:25.475Z,102008.08
2022-10-11T07:08:52.726Z,102013.91
2022-10-11T07:11:23.527Z,102017.05
2022-10-11T07:13:54.277Z,102024.66
2022-10-11T07:16:23.187Z,102023.70
2022-10-11T07:18:59.840Z,102029.61
2022-10-11T07:21:28.933Z,102029.19
2022-10-11T07:23:55.609Z,102030.75
2022-10-11T07:26:22.452Z,102037.66
2022-10-11T07:28:49.410Z,102038.23
2022-10-11T07:31:22.050Z,102042.14
2022-10-11T07:33:48.966Z,102044.38
2022-10-11T07:36:16.635Z,102045.98
2022-10-11T07:38:46.623Z,102048.41
2022-10-11T07:41:14.555Z,102049.80
2022-10-11T07:43:43.529Z,102049.13
2022-10-11T07:46:11.373Z,102053.73
2022-10-11T07:48:39.661Z,102050.64
2022-10-11T07:51:17.615Z,102051.35
2022-10-11T07:53:54.159Z,102051.82
2022-10-11T07:56:25.733Z,102051.92
2022-10-11T07:58:57.142Z,102053.80
2022-10-11T08:01:24.679Z,102060.45
2022-10-11T08:03:52.484Z,102059.88
2022-10-11T08:06:23.051Z,102063.36
2022-10-11T08:08:50.227Z,102064.89
2022-10-11T08:11:30.171Z,102070.83
2022-10-11T08:13:58.801Z,102073.76
2022-10-11T08:16:25.796Z,102068.17
2022-10-11T08:18:54.401Z,102071.96
2022-10-11T08:21:21.423Z,102072.83
2022-10-11T08:23:48.325Z,102075.55
2022-10-11T08:26:15.939Z,102076.86
2022-10-11T08:28:42.760Z,102079.59
2022-10-11T08:31:14.350Z,102081.71
2022-10-11T08:33:41.782Z,102083.39
2022-10-11T08:36:09.919Z,102080.37
2022-10-11T08:38:38.104Z,102084.36
2022-10-11T08:41:23.756Z,102084.42
2022-10-11T08:44:27.717Z,102086.33
2022-10-11T08:47:12.762Z,102084.39
2022-10-11T08:49:39.965Z,102091.90
2022-10-11T08:52:21.157Z,102091.52
2022-10-11T08:54:56.007Z,102092.42
2022-10-11T08:57:27.698Z,102091.82
2022-10-11T09:00:02.479Z,102094.96
2022-10-11T09:02:55.582Z,102103.45
2022-10-11T09:05:29.424Z,102106.71
2022-10-11T09:08:25.001Z,102101.66
2022-10-11T09:11:07.123Z,102100.75
2022-10-11T09:14:35.775Z,102099.95
2022-10-11T09:17:24.636Z,102105.09
2022-10-11T09:20:21.941Z,102104.79
2022-10-11T09:23:13.069Z,102107.42
2022-10-11T09:26:20.416Z,102107.87
2022-10-11T09:29:27.127Z,102106.42
2022-10-11T09:31:57.116Z,102106.77
2022-10-11T09:34:32.288Z,102108.73
2022-10-11T09:37:32.703Z,102107.55
2022-10-11T09:40:34.817Z,102111.23
2022-10-11T09:43:01.585Z,102108.20
2022-10-11T09:45:28.655Z,102107.63
2022-10-11T09:47:59.658Z,102103.79
2022-10-11T09:50:29.739Z,102102.67
2022-10-11T09:53:00.599Z,102098.98
2022-10-11T09:56:02.101Z,102098.89
2022-10-11T09:58:35.958Z,102095.92
2022-10-11T10:01:11.900Z,102094.10
2022-10-11T10:03:43.071Z,102097.90
2022-10-11T10:06:28.311Z,102094.34
2022-10-11T10:08:55.839Z,102093.39
2022-10-11T10:11:22.673Z,102095.80
2022-10-11T10:13:56.876Z,102097.84
2022-10-11T10:16:35.225Z,102092.46
2022-10-11T10:19:06.325Z,102097.14
2022-10-11T10:21:47.345Z,102094.24
2022-10-11T10:24:42.425Z,102096.25
2022-10-11T10:27:24.007Z,102097.87
2022-10-11T10:30:09.090Z,102101.18
2022-10-11T10:32:47.549Z,102104.12
2022-10-11T10:35:41.922Z,102101.87
2022-10-11T10:38:34.319Z,102102.09
2022-10-11T10:41:14.531Z,102108.83
2022-10-11T10:43:46.003Z,102106.73
2022-10-11T10:46:46.472Z,102106.77
2022-10-11T10:53:04.646Z,102108.97
2022-10-11T10:55:43.023Z,102106.98
2022-10-11T10:58:32.127Z,102103.89
2022-10-11T11:01:22.816Z,102106.09
2022-10-11T11:04:07.398Z,102103.60
2022-10-11T11:07:22.913Z,102105.25
2022-10-11T11:10:07.358Z,102105.60
2022-10-11T11:13:13.656Z,102101.83
2022-10-11T11:16:12.927Z,102107.77
2022-10-11T11:19:17.610Z,102108.15
2022-10-11T11:22:06.147Z,102109.25
2022-10-11T11:25:32.525Z,102108.30
2022-10-11T11:28:40.000Z,102104.15
2022-10-11T11:31:41.849Z,102110.90
2022-10-11T11:34:37.985Z,102107.15
2022-10-11T11:37:25.313Z,102106.73
2022-10-11T11:40:00.721Z,102103.95
2022-10-11T11:42:57.097Z,102105.88
2022-10-11T11:45:55.575Z,102098.73
2022-10-11T11:48:26.050Z,102103.94
2022-10-11T11:51:30.412Z,102106.76
2022-10-11T11:54:36.477Z,102106.89
2022-10-11T11:57:34.908Z,102107.24
2022-10-11T12:00:20.697Z,102099.54
2022-10-11T12:02:58.755Z,102093.56
2022-10-11T12:05:33.784Z,102091.96
2022-10-11T12:08:05.388Z,102091.83
2022-10-11T12:11:00.291Z,102083.95
2022-10-11T12:13:37.304Z,102082.49
2022-10-11T12:16:03.818Z,102083.08
2022-10-11T12:18:34.028Z,102087.30
2022-10-11T12:21:21.942Z,102080.95
2022-10-11T12:23:55.372Z,102082.55
2022-10-11T12:26:27.678Z,102082.41
2022-10-11T12:29:20.732Z,102083.59
2022-10-11T12:32:31.679Z,102080.35
2022-10-11T12:35:33.451Z,102082.05
2022-10-11T12:38:28.694Z,102075.52
2022-10-11T12:41:26.090Z,102072.36
2022-10-11T12:44:22.992Z,102070.73
2022-10-11T12:46:55.392Z,102074.49
2022-10-11T12:49:28.409Z,102074.91
2022-10-11T12:52:22.198Z,102075.89
2022-10-11T12:55:13.509Z,102073.86
2022-10-11T12:58:17.419Z,102079.52
2022-10-11T13:01:03.976Z,102077.15
2022-10-11T13:03:37.334Z,102073.80
2022-10-11T13:06:29.267Z,102075.82
2022-10-11T13:09:05.633Z,102078.73
2022-10-11T13:11:48.376Z,102076.68
2022-10-11T13:14:23.813Z,102073.92
2022-10-11T13:17:16.912Z,102071.57
2022-10-11T13:19:43.840Z,102072.14
2022-10-11T13:22:22.990Z,102075.96
2022-10-11T13:24:49.998Z,102079.34
2022-10-11T13:27:27.655Z,102077.95
2022-10-11T13:30:00.251Z,102077.45
2022-10-11T13:32:30.722Z,102079.88
2022-10-11T13:35:14.469Z,102079.10
2022-10-11T13:37:47.351Z,102081.33
2022-10-11T13:40:21.876Z,102081.38
2022-10-11T13:42:52.085Z,102078.35
2022-10-11T13:45:24.445Z,102078.92
2022-10-11T13:47:54.563Z,102076.30
2022-10-11T13:50:34.606Z,102077.27
2022-10-11T13:53:24.486Z,102074.90
2022-10-11T13:56:02.281Z,102072.80
2022-10-11T13:58:46.263Z,102071.58
2022-10-11T14:01:25.467Z,102072.84
2022-10-11T14:04:01.644Z,102074.41
2022-10-11T14:07:02.308Z,102070.63
2022-10-11T14:09:38.365Z,102071.81
2022-10-11T14:12:44.280Z,102071.76
2022-10-11T14:15:31.044Z,102074.61
2022-10-11T14:18:00.327Z,102071.89
2022-10-11T14:20:41.740Z,102071.97
2022-10-11T14:23:08.353Z,102073.13
2022-10-11T14:25:35.397Z,102070.08
2022-10-11T14:28:02.126Z,102077.11
2022-10-11T14:30:31.555Z,102077.98
2022-10-11T14:33:02.585Z,102077.08
2022-10-11T14:35:32.403Z,102075.05
2022-10-11T14:37:59.870Z,102074.61
2022-10-11T14:40:30.379Z,102074.27
2022-10-11T14:42:57.938Z,102072.09
2022-10-11T14:45:25.494Z,102070.81
2022-10-11T14:47:52.195Z,102071.60
2022-10-11T14:50:40.525Z,102069.11
2022-10-11T14:53:10.282Z,102071.12
2022-10-11T14:55:39.401Z,102075.70
2022-10-11T14:58:08.194Z,102077.61
2022-10-11T15:00:37.055Z,102080.66
2022-10-11T15:03:07.132Z,102075.46
2022-10-11T15:05:35.898Z,102077.90
2022-10-11T15:08:05.745Z,102078.02
2022-10-11T15:10:40.861Z,102078.51
2022-10-11T15:13:09.072Z,102081.25
2022-10-11T15:15:40.887Z,102082.14
2022-10-11T15:18:13.678Z,102083.83
2022-10-11T15:20:45.179Z,102084.63
2022-10-11T15:23:12.573Z,102081.30
2022-10-11T15:25:41.730Z,102081.11
2022-10-11T15:28:19.282Z,102079.34
2022-10-11T15:30:46.023Z,102082.90
2022-10-11T15:33:13.060Z,102081.20
2022-10-11T15:35:39.679Z,102080.41
2022-10-11T15:38:06.320Z,102079.88
2022-10-11T15:40:36.053Z,102086.66
2022-10-11T15:43:03.739Z,102087.59
2022-10-11T15:45:31.084Z,102085.31
2022-10-11T15:47:59.155Z,102085.47
2022-10-11T15:50:41.506Z,102088.40
2022-10-11T15:53:31.145Z,102093.41
2022-10-11T15:56:05.646Z,102093.87
2022-10-11T15:58:40.030Z,102097.76
2022-10-11T16:01:14.806Z,102097.92
2022-10-11T16:03:42.212Z,102098.86
2022-10-11T16:06:10.929Z,102103.00
2022-10-11T16:08:38.371Z,102104.71
2022-10-11T16:11:08.187Z,102110.23
2022-10-11T16:13:36.455Z,102107.41
2022-10-11T16:16:06.897Z,102115.01
2022-10-11T16:18:35.902Z,102116.80
2022-10-11T16:21:13.151Z,102119.06
2022-10-11T16:23:40.392Z,102120.23
2022-10-11T16:26:13.518Z,102122.98
2022-10-11T16:28:42.106Z,102119.60
2022-10-11T16:31:14.493Z,102121.50
2022-10-11T16:33:47.806Z,102124.78
2022-10-11T16:36:40.757Z,102128.68
2022-10-11T16:39:18.443Z,102128.67
2022-10-11T16:41:46.247Z,102130.71
2022-10-11T16:44:16.214Z,102132.41
2022-10-11T16:46:48.261Z,102134.13
2022-10-11T16:49:22.935Z,102132.91
2022-10-11T16:51:51.742Z,102136.53
2022-10-11T16:54:20.931Z,102138.89
2022-10-11T16:56:49.615Z,102137.92
2022-10-11T16:59:17.047Z,102145.29
2022-10-11T17:01:45.240Z,102148.95
2022-10-11T17:04:13.517Z,102153.99
2022-10-11T17:06:41.254Z,102151.27
2022-10-11T17:09:08.559Z,102152.04
2022-10-11T17:11:35.604Z,102154.27
2022-10-11T17:14:02.713Z,102152.65
2022-10-11T17:16:29.615Z,102154.35
2022-10-11T17:18:56.339Z,102156.37
2022-10-11T17:21:23.976Z,102156.50
2022-10-11T17:23:50.829Z,102158.84
2022-10-11T17:26:26.699Z,102156.70
2022-10-11T17:28:56.238Z,102160.45
2022-10-11T17:31:24.366Z,102163.77
2022-10-11T17:33:53.140Z,102168.84
2022-10-11T17:36:31.773Z,102164.29
2022-10-11T17:39:02.189Z,102165.80
2022-10-11T17:41:32.096Z,102167.23
2022-10-11T17:44:01.154Z,102168.66
2022-10-11T17:46:32.271Z,102167.86
2022-10-11T17:49:05.833Z,102171.00
2022-10-11T17:51:34.222Z,102171.02
2022-10-11T17:54:01.299Z,102172.63
2022-10-11T17:56:32.390Z,102171.31
2022-10-11T17:59:02.013Z,102169.75
2022-10-11T18:01:29.823Z,102168.88
2022-10-11T18:04:00.049Z,102169.88
2022-10-11T18:06:31.467Z,102168.32
2022-10-11T18:09:03.931Z,102170.25
2022-10-11T18:11:31.813Z,102173.95
2022-10-11T18:13:58.559Z,102171.11
2022-10-11T18:16:30.549Z,102171.02
2022-10-11T18:18:58.228Z,102167.98
2022-10-11T18:21:34.026Z,102166.44
2022-10-11T18:24:07.849Z,102164.32
2022-10-11T18:26:34.558Z,102165.55
2022-10-11T18:29:01.291Z,102166.07
2022-10-11T18:31:30.975Z,102166.41
2022-10-11T18:33:57.851Z,102163.58
2022-10-11T18:36:28.691Z,102164.30
2022-10-11T18:38:59.525Z,102168.95
2022-10-11T18:41:30.690Z,102168.64
2022-10-11T18:44:05.389Z,102171.23
2022-10-11T18:46:33.113Z,102167.64
2022-10-11T18:49:02.232Z,102167.39
2022-10-11T18:51:36.352Z,102165.39
2022-10-11T18:54:04.918Z,102163.55
2022-10-11T18:56:34.661Z,102172.61
2022-10-11T18:59:01.834Z,102169.46
2022-10-11T19:01:35.825Z,102170.91
2022-10-11T19:04:04.814Z,102170.41
2022-10-11T19:06:39.610Z,102166.02
2022-10-11T19:09:14.067Z,102165.55
2022-10-11T19:11:41.813Z,102164.47
2022-10-11T19:14:14.633Z,102162.13
2022-10-11T19:16:49.639Z,102165.19
2022-10-11T19:19:18.458Z,102163.70
2022-10-11T19:21:48.606Z,102166.59
2022-10-11T19:24:22.165Z,102162.05
2022-10-11T19:26:53.000Z,102164.20
2022-10-11T19:29:23.695Z,102164.20
2022-10-11T19:31:57.421Z,102163.27
2022-10-11T19:34:27.604Z,102162.55
2022-10-11T19:37:00.733Z,102160.56
2022-10-11T19:39:29.620Z,102157.38
2022-10-11T19:41:56.559Z,102160.46
2022-10-11T19:44:23.371Z,102160.69
2022-10-11T19:46:51.898Z,102163.58
2022-10-11T19:49:22.616Z,102163.02
2022-10-11T19:51:49.824Z,102163.64
2022-10-11T19:54:17.071Z,102164.37
2022-10-11T19:56:44.801Z,102160.04
2022-10-11T19:59:12.889Z,102164.28
2022-10-11T20:01:40.361Z,102163.52
2022-10-11T20:04:27.561Z,102166.50
2022-10-11T20:06:58.590Z,102167.02
2022-10-11T20:09:30.363Z,102162.39
2022-10-11T20:11:57.740Z,102164.56
2022-10-11T20:14:25.240Z,102167.86
2022-10-11T20:16:52.089Z,102168.65
2022-10-11T20:19:19.467Z,102169.33
2022-10-11T20:21:47.585Z,102171.05
2022-10-11T20:24:14.533Z,102176.48
2022-10-11T20:26:41.286Z,102180.95
2022-10-11T20:29:07.947Z,102178.14
2022-10-11T20:31:38.775Z,102176.89
2022-10-11T20:34:07.490Z,102178.97
2022-10-11T20:36:36.367Z,102182.92
2022-10-11T20:39:06.281Z,102184.08
2022-10-11T20:41:39.776Z,102186.20
2022-10-11T20:44:09.046Z,102186.52
2022-10-11T20:46:39.040Z,102188.77
2022-10-11T20:49:11.251Z,102191.23
2022-10-11T20:51:41.465Z,102188.29
2022-10-11T20:54:14.150Z,102183.25
2022-10-11T20:56:43.994Z,102183.13
2022-10-11T20:59:10.831Z,102182.52
2022-10-11T21:01:40.921Z,102181.08
2022-10-11T21:04:18.743Z,102182.27
2022-10-11T21:06:47.039Z,102187.90
2022-10-11T21:09:16.539Z,102191.52
2022-10-11T21:11:43.924Z,102189.90
2022-10-11T21:14:10.598Z,102190.45
2022-10-11T21:16:37.843Z,102192.43
2022-10-11T21:19:04.598Z,102193.80
2022-10-11T21:21:31.816Z,102191.93
2022-10-11T21:24:01.855Z,102192.38
2022-10-11T21:26:30.457Z,102192.42
2022-10-11T21:29:00.806Z,102197.26
2022-10-11T21:31:31.257Z,102199.13
2022-10-11T21:34:00.935Z,102198.41
2022-10-11T21:36:27.825Z,102198.17
2022-10-11T21:38:54.861Z,102201.05
2022-10-11T21:41:31.249Z,102202.15
2022-10-11T21:43:58.195Z,102202.76
2022-10-11T21:46:54.160Z,102203.61
2022-10-11T21:49:15.654Z,102203.79
2022-10-11T21:51:42.661Z,102202.89
2022-10-11T21:54:09.738Z,102198.71
2022-10-11T21:56:36.397Z,102202.80
2022-10-11T21:59:06.516Z,102200.69
2022-10-11T22:01:39.427Z,102197.49
2022-10-11T22:04:09.601Z,102197.11
2022-10-11T22:06:38.099Z,102194.01
2022-10-11T22:09:06.578Z,102196.96
2022-10-11T22:11:33.273Z,102197.98
2022-10-11T22:13:59.987Z,102198.52
2022-10-11T22:16:26.601Z,102197.89
2022-10-11T22:18:54.077Z,102197.73
2022-10-11T22:21:23.872Z,102198.93
2022-10-11T22:23:53.551Z,102196.87
2022-10-11T22:26:24.335Z,102197.20
2022-10-11T22:28:51.217Z,102196.72
2022-10-11T22:31:19.873Z,102194.61
2022-10-11T22:33:46.977Z,102192.64
2022-10-11T22:36:17.157Z,102192.16
2022-10-11T22:38:44.380Z,102190.09
2022-10-11T22:41:11.488Z,102190.29
2022-10-11T22:43:39.022Z,102193.59
2022-10-11T22:46:09.274Z,102190.52
2022-10-11T22:48:36.219Z,102189.67
2022-10-11T22:51:03.440Z,102188.47
2022-10-11T22:53:30.829Z,102191.67
2022-10-11T22:55:58.233Z,102190.55
2022-10-11T22:58:25.189Z,102186.60
2022-10-11T23:00:51.961Z,102190.85
2022-10-11T23:03:19.141Z,102190.55
2022-10-11T23:05:58.241Z,102188.27
2022-10-11T23:08:25.626Z,102189.73
2022-10-11T23:10:53.474Z,102192.80
2022-10-11T23:13:20.666Z,102193.05
2022-10-11T23:15:47.441Z,102192.77
2022-10-11T23:18:17.053Z,102192.41
2022-10-11T23:20:43.932Z,102194.14
2022-10-11T23:23:10.651Z,102195.09
2022-10-11T23:25:37.286Z,102198.14
2022-10-11T23:28:04.106Z,102203.48
2022-10-11T23:30:31.477Z,102203.08
2022-10-11T23:32:58.231Z,102200.25
2022-10-11T23:35:25.222Z,102201.30
2022-10-11T23:37:54.783Z,102202.78
2022-10-11T23:40:21.721Z,102208.88
2022-10-11T23:42:48.361Z,102210.17
2022-10-11T23:45:15.232Z,102211.65
2022-10-11T23:47:41.933Z,102212.70
2022-10-11T23:50:09.271Z,102209.30
2022-10-11T23:52:36.643Z,102207.27
2022-10-11T23:55:04.241Z,102206.98
2022-10-11T23:57:30.872Z,102208.82
2022-10-11T23:59:57.458Z,102210.09
